Time;durP1;ratioP1;P1;durP2;ratioP2;P2;SDS_P1;SDS_P2;PMS_P1;PMS_P2;Temp;Humidity;BMP_temperature;BMP_pressure;BME280_temperature;BME280_humidity;BME280_pressure;Samples;Min_cycle;Max_cycle;Signal;HPM_P1;HPM_P2
2022/01/30 00:01:58;;;;;;;;;;;27.00;89.70;;;;;;5092560;28;19939;-55
2022/01/30 00:04:25;;;;;;;;;;;27.00;90.00;;;;;;5092747;28;19908;-57
2022/01/30 00:06:51;;;;;;;;;;;27.10;89.60;;;;;;5092598;28;20362;-62
2022/01/30 00:09:21;;;;;;;;;;;27.20;89.50;;;;;;5092757;28;19970;-57
2022/01/30 00:11:58;;;;;;;;;;;27.20;88.50;;;;;;5092858;28;19915;-56
2022/01/30 00:14:27;;;;;;;;;;;27.30;88.00;;;;;;5092669;28;19930;-61
2022/01/30 00:17:03;;;;;;;;;;;27.20;89.00;;;;;;5092570;28;19943;-62
2022/01/30 00:20:06;;;;;;;;;;;27.20;89.20;;;;;;5092715;28;19973;-55
2022/01/30 00:25:06;;;;;;;;;;;27.30;88.40;;;;;;5092739;28;20036;-62
2022/01/30 00:27:46;;;;;;;;;;;27.40;87.60;;;;;;5092473;28;19912;-61
2022/01/30 00:30:14;;;;;;;;;;;27.40;88.20;;;;;;5091934;28;19908;-57
2022/01/30 00:32:41;;;;;;;;;;;27.40;88.30;;;;;;5092341;28;19935;-58
2022/01/30 00:35:11;;;;;;;;;;;27.40;87.50;;;;;;5092344;28;19908;-57
2022/01/30 00:37:41;;;;;;;;;;;27.50;87.20;;;;;;5092322;28;19915;-58
2022/01/30 00:40:08;;;;;;;;;;;27.50;87.70;;;;;;5090715;28;20329;-59
2022/01/30 00:42:34;;;;;;;;;;;27.50;88.10;;;;;;5092419;28;20266;-58
2022/01/30 00:45:02;;;;;;;;;;;27.60;87.90;;;;;;5092041;28;19908;-57
2022/01/30 00:47:29;;;;;;;;;;;27.60;87.60;;;;;;5092558;28;19908;-55
2022/01/30 00:49:56;;;;;;;;;;;27.60;88.00;;;;;;5091246;28;19912;-52
2022/01/30 00:52:23;;;;;;;;;;;27.70;87.70;;;;;;5092081;28;20223;-61
2022/01/30 00:54:50;;;;;;;;;;;27.80;86.80;;;;;;5125035;27;19957;-59
2022/01/30 00:57:17;;;;;;;;;;;27.80;86.80;;;;;;5095276;28;19912;-61
2022/01/30 00:59:43;;;;;;;;;;;27.90;86.30;;;;;;5096329;28;19915;-53
2022/01/30 01:02:10;;;;;;;;;;;28.00;86.20;;;;;;5096069;28;19909;-60
2022/01/30 01:04:37;;;;;;;;;;;28.00;86.00;;;;;;5094638;28;20358;-59
2022/01/30 01:07:04;;;;;;;;;;;28.00;85.80;;;;;;5095836;28;19908;-57
2022/01/30 01:09:36;;;;;;;;;;;28.10;85.10;;;;;;5095804;28;19926;-54
2022/01/30 01:26:06;;;;;;;;;;;28.30;85.40;;;;;;5092770;28;19970;-58
2022/01/30 01:28:33;;;;;;;;;;;28.40;85.30;;;;;;5093295;28;19915;-56
2022/01/30 01:31:00;;;;;;;;;;;28.50;85.20;;;;;;5082966;28;20215;-46
2022/01/30 01:33:36;;;;;;;;;;;28.60;83.50;;;;;;5095632;28;19976;-55
2022/01/30 01:36:03;;;;;;;;;;;28.60;84.10;;;;;;5095508;28;19947;-51
2022/01/30 01:38:29;;;;;;;;;;;28.60;83.60;;;;;;5095610;28;19916;-61
2022/01/30 01:40:56;;;;;;;;;;;28.70;83.90;;;;;;5095311;28;20255;-51
2022/01/30 01:43:24;;;;;;;;;;;28.60;84.20;;;;;;5095602;28;19919;-57
2022/01/30 01:45:53;;;;;;;;;;;28.70;83.40;;;;;;5095173;28;19908;-55
2022/01/30 01:48:20;;;;;;;;;;;28.70;84.20;;;;;;5095695;28;19908;-60
2022/01/30 01:51:04;;;;;;;;;;;28.60;84.00;;;;;;5095688;28;20369;-59
2022/01/30 01:53:30;;;;;;;;;;;28.50;84.50;;;;;;5096036;28;19908;-53
2022/01/30 01:55:58;;;;;;;;;;;28.40;85.50;;;;;;5094940;28;19915;-57
2022/01/30 01:58:25;;;;;;;;;;;28.50;83.20;;;;;;5094919;28;19939;-48
2022/01/30 02:00:52;;;;;;;;;;;28.60;83.70;;;;;;5095084;28;20329;-57
2022/01/30 02:03:19;;;;;;;;;;;28.60;85.00;;;;;;5095099;28;19912;-55
2022/01/30 02:05:55;;;;;;;;;;;28.70;82.50;;;;;;5095009;28;19908;-56
2022/01/30 02:08:35;;;;;;;;;;;28.50;85.00;;;;;;5094413;28;20295;-57
2022/01/30 02:11:15;;;;;;;;;;;28.50;85.50;;;;;;5095421;28;19969;-62
2022/01/30 02:13:56;;;;;;;;;;;28.50;84.30;;;;;;5095423;28;19969;-60
2022/01/30 02:27:17;;;;;;;;;;;28.80;84.50;;;;;;5095148;28;20370;-60
2022/01/30 02:29:44;;;;;;;;;;;28.90;83.10;;;;;;5094582;28;19994;-61
2022/01/30 02:32:11;;;;;;;;;;;28.90;82.30;;;;;;5094294;28;20366;-55
2022/01/30 02:34:38;;;;;;;;;;;29.00;83.50;;;;;;5094425;28;19912;-64
2022/01/30 02:37:05;;;;;;;;;;;28.90;84.10;;;;;;5094416;28;19908;-53
2022/01/30 02:39:32;;;;;;;;;;;29.10;82.30;;;;;;5094211;28;19923;-57
2022/01/30 02:41:59;;;;;;;;;;;29.30;80.70;;;;;;5094277;28;19943;-61
2022/01/30 02:44:37;;;;;;;;;;;29.20;80.70;;;;;;5094087;28;19983;-56
2022/01/30 02:47:09;;;;;;;;;;;29.10;81.60;;;;;;5094276;28;19908;-56
2022/01/30 02:49:46;;;;;;;;;;;29.20;82.30;;;;;;5094014;28;20266;-56
2022/01/30 02:52:14;;;;;;;;;;;29.20;81.90;;;;;;5093590;28;19981;-55
2022/01/30 02:54:42;;;;;;;;;;;29.20;82.50;;;;;;5094140;28;19919;-59
2022/01/30 02:57:08;;;;;;;;;;;29.20;83.30;;;;;;5093596;28;19909;-60
2022/01/30 02:59:35;;;;;;;;;;;29.10;82.70;;;;;;5093486;28;20319;-58
2022/01/30 03:02:02;;;;;;;;;;;29.20;83.50;;;;;;5093536;28;19927;-61
2022/01/30 03:04:29;;;;;;;;;;;29.20;82.30;;;;;;5093058;28;19948;-54
2022/01/30 03:06:55;;;;;;;;;;;29.20;82.50;;;;;;5093185;28;20022;-59
2022/01/30 03:09:22;;;;;;;;;;;29.30;82.00;;;;;;5093372;28;19974;-59
2022/01/30 03:11:49;;;;;;;;;;;29.30;79.80;;;;;;5093764;28;19948;-62
2022/01/30 03:14:16;;;;;;;;;;;29.40;81.50;;;;;;5093456;28;19912;-57
2022/01/30 03:16:43;;;;;;;;;;;29.30;81.40;;;;;;5094022;28;20322;-53
2022/01/30 03:19:09;;;;;;;;;;;29.40;80.10;;;;;;5092934;28;20291;-55
2022/01/30 03:21:36;;;;;;;;;;;29.40;81.40;;;;;;5093651;28;20270;-60
2022/01/30 03:24:03;;;;;;;;;;;29.40;80.90;;;;;;5093280;28;19908;-52
2022/01/30 03:26:36;;;;;;;;;;;29.40;81.30;;;;;;5092955;28;19908;-59
2022/01/30 03:29:06;;;;;;;;;;;29.50;81.40;;;;;;5093262;28;19915;-59
2022/01/30 03:31:36;;;;;;;;;;;29.50;81.80;;;;;;5092960;28;19919;-59
2022/01/30 03:34:03;;;;;;;;;;;29.50;80.60;;;;;;5093156;28;19969;-61
2022/01/30 03:36:30;;;;;;;;;;;29.50;82.50;;;;;;5093530;28;19908;-63
2022/01/30 03:38:58;;;;;;;;;;;29.50;82.10;;;;;;5092091;28;19923;-59
2022/01/30 03:41:25;;;;;;;;;;;29.50;82.00;;;;;;5093392;28;19915;-58
2022/01/30 03:43:52;;;;;;;;;;;29.50;83.10;;;;;;5092849;28;20358;-54
2022/01/30 03:46:20;;;;;;;;;;;29.50;82.40;;;;;;5093530;28;19909;-58
2022/01/30 03:48:46;;;;;;;;;;;29.50;82.80;;;;;;5093185;28;19916;-61
2022/01/30 03:51:13;;;;;;;;;;;29.40;82.20;;;;;;5093379;28;19908;-59
2022/01/30 03:53:40;;;;;;;;;;;29.50;80.80;;;;;;5093092;28;19953;-58
2022/01/30 03:56:07;;;;;;;;;;;29.50;80.20;;;;;;5092865;28;19908;-56
2022/01/30 03:58:34;;;;;;;;;;;29.50;80.50;;;;;;5092814;28;19916;-58
2022/01/30 04:01:01;;;;;;;;;;;29.50;80.90;;;;;;5092872;28;19981;-57
2022/01/30 04:03:28;;;;;;;;;;;29.50;81.30;;;;;;5092647;28;19960;-55
2022/01/30 04:05:55;;;;;;;;;;;29.40;81.10;;;;;;5091908;28;19908;-55
2022/01/30 04:08:21;;;;;;;;;;;29.40;81.10;;;;;;5092412;28;19946;-59
2022/01/30 04:10:48;;;;;;;;;;;29.40;81.70;;;;;;5092644;28;19961;-58
2022/01/30 04:13:15;;;;;;;;;;;29.50;81.50;;;;;;5092757;28;19918;-58
2022/01/30 04:15:42;;;;;;;;;;;29.50;82.00;;;;;;5092366;28;19908;-55
2022/01/30 04:18:08;;;;;;;;;;;29.50;82.20;;;;;;5092233;28;20428;-57
2022/01/30 04:20:36;;;;;;;;;;;29.50;83.00;;;;;;5092641;28;19916;-53
2022/01/30 04:23:02;;;;;;;;;;;29.50;82.50;;;;;;5092575;28;19908;-59
2022/01/30 04:25:29;;;;;;;;;;;29.50;82.70;;;;;;5092884;28;20397;-60
2022/01/30 04:27:56;;;;;;;;;;;29.50;84.30;;;;;;5092263;28;20307;-57
2022/01/30 04:30:23;;;;;;;;;;;29.50;83.10;;;;;;5094086;28;19932;-61
2022/01/30 04:32:49;;;;;;;;;;;29.50;81.90;;;;;;5096363;28;19911;-56
2022/01/30 04:35:22;;;;;;;;;;;29.50;80.70;;;;;;5096688;28;19908;-56
2022/01/30 04:38:08;;;;;;;;;;;29.50;81.70;;;;;;5096666;28;20003;-60
2022/01/30 04:52:05;;;;;;;;;;;29.60;82.60;;;;;;5096587;28;19918;-61
2022/01/30 05:00:27;;;;;;;;;;;29.50;83.80;;;;;;5096129;28;19923;-61
2022/01/30 05:08:01;;;;;;;;;;;29.50;84.80;;;;;;5083969;28;19986;-59
2022/01/30 05:10:28;;;;;;;;;;;29.50;82.10;;;;;;5096114;28;19908;-59
2022/01/30 05:12:57;;;;;;;;;;;29.50;82.80;;;;;;5096092;28;19965;-57
2022/01/30 05:15:27;;;;;;;;;;;29.40;83.30;;;;;;5095815;28;19991;-61
2022/01/30 05:17:54;;;;;;;;;;;29.30;83.80;;;;;;5094448;28;19912;-60
2022/01/30 05:20:21;;;;;;;;;;;29.30;83.70;;;;;;5094358;28;19922;-58
2022/01/30 05:22:48;;;;;;;;;;;29.20;84.20;;;;;;5095189;28;19908;-60
2022/01/30 05:25:15;;;;;;;;;;;29.20;83.90;;;;;;5095411;28;20014;-61
2022/01/30 05:27:42;;;;;;;;;;;29.20;83.60;;;;;;5095396;28;20365;-54
2022/01/30 05:30:08;;;;;;;;;;;29.10;84.20;;;;;;5094940;28;19916;-57
2022/01/30 05:32:35;;;;;;;;;;;29.10;84.60;;;;;;5095341;28;19980;-60
2022/01/30 05:35:02;;;;;;;;;;;29.10;84.20;;;;;;5095297;28;20281;-55
2022/01/30 05:37:29;;;;;;;;;;;29.10;84.50;;;;;;5095195;28;19951;-58
2022/01/30 05:39:56;;;;;;;;;;;29.10;83.60;;;;;;5095496;28;20006;-58
2022/01/30 05:42:25;;;;;;;;;;;29.00;84.00;;;;;;5094751;28;19908;-54
2022/01/30 05:47:27;;;;;;;;;;;29.00;84.60;;;;;;5095943;28;19908;-64
2022/01/30 05:49:54;;;;;;;;;;;29.00;84.50;;;;;;5126750;27;19969;-63
2022/01/30 05:52:24;;;;;;;;;;;29.00;85.20;;;;;;5095483;28;19940;-50
2022/01/30 05:54:51;;;;;;;;;;;28.90;85.00;;;;;;5095315;28;19908;-59
2022/01/30 05:57:20;;;;;;;;;;;28.90;84.80;;;;;;5095200;28;19912;-59
2022/01/30 05:59:47;;;;;;;;;;;28.90;84.00;;;;;;5095035;28;19916;-58
2022/01/30 06:02:14;;;;;;;;;;;28.90;84.80;;;;;;5094970;28;19934;-61
2022/01/30 06:04:40;;;;;;;;;;;28.90;84.70;;;;;;5094761;28;20243;-61
2022/01/30 06:07:09;;;;;;;;;;;28.90;85.30;;;;;;5094938;28;19974;-63
2022/01/30 06:09:36;;;;;;;;;;;28.90;84.70;;;;;;5095014;28;19931;-57
2022/01/30 06:12:03;;;;;;;;;;;28.80;84.80;;;;;;5094649;28;19908;-63
2022/01/30 06:14:30;;;;;;;;;;;28.80;85.60;;;;;;5094926;28;19908;-62
2022/01/30 06:16:57;;;;;;;;;;;28.80;84.70;;;;;;5095149;28;19998;-61
2022/01/30 06:19:25;;;;;;;;;;;28.80;85.30;;;;;;5094871;28;20350;-64
2022/01/30 06:21:52;;;;;;;;;;;28.70;86.30;;;;;;5094837;28;19953;-62
2022/01/30 06:24:18;;;;;;;;;;;28.70;84.90;;;;;;5095034;28;19908;-65
2022/01/30 06:26:45;;;;;;;;;;;28.60;85.80;;;;;;5094661;28;20358;-63
2022/01/30 06:29:12;;;;;;;;;;;28.60;85.10;;;;;;5094405;28;19915;-61
2022/01/30 06:31:38;;;;;;;;;;;28.60;86.20;;;;;;5094373;28;20026;-61
2022/01/30 06:34:05;;;;;;;;;;;28.50;86.60;;;;;;5094335;28;19916;-59
2022/01/30 06:36:32;;;;;;;;;;;28.50;85.70;;;;;;5094710;28;19915;-62
2022/01/30 06:38:58;;;;;;;;;;;28.50;86.20;;;;;;5127238;27;19965;-61
2022/01/30 06:41:25;;;;;;;;;;;28.50;86.60;;;;;;5094619;28;19912;-62
2022/01/30 06:43:52;;;;;;;;;;;28.40;85.80;;;;;;5094265;28;19991;-63
2022/01/30 06:46:18;;;;;;;;;;;28.40;86.50;;;;;;5093547;28;19908;-61
2022/01/30 06:48:45;;;;;;;;;;;28.40;85.80;;;;;;5094432;28;19940;-63
2022/01/30 06:51:12;;;;;;;;;;;28.40;86.80;;;;;;5094514;28;19908;-65
2022/01/30 06:53:38;;;;;;;;;;;28.30;87.00;;;;;;5094589;28;19931;-64
2022/01/30 06:56:07;;;;;;;;;;;28.20;87.30;;;;;;5094285;28;20041;-58
2022/01/30 06:58:34;;;;;;;;;;;28.20;86.80;;;;;;5094097;28;19916;-58
2022/01/30 07:01:00;;;;;;;;;;;28.20;85.80;;;;;;5094243;28;19909;-55
2022/01/30 07:03:27;;;;;;;;;;;28.20;87.10;;;;;;5094203;28;19966;-63
2022/01/30 07:05:54;;;;;;;;;;;28.10;87.70;;;;;;5093723;28;19908;-60
2022/01/30 07:08:20;;;;;;;;;;;28.10;88.10;;;;;;5093653;28;19920;-54
2022/01/30 07:10:47;;;;;;;;;;;28.10;88.10;;;;;;5093839;28;19919;-58
2022/01/30 07:13:14;;;;;;;;;;;28.00;88.70;;;;;;5093814;28;19908;-61
2022/01/30 07:15:43;;;;;;;;;;;28.10;87.80;;;;;;5093958;28;19912;-62
2022/01/30 07:18:10;;;;;;;;;;;28.10;87.70;;;;;;5093543;28;19939;-59
2022/01/30 07:20:37;;;;;;;;;;;28.00;87.60;;;;;;5093908;28;19912;-61
2022/01/30 07:23:03;;;;;;;;;;;28.00;87.80;;;;;;5093963;28;19908;-59
2022/01/30 07:25:30;;;;;;;;;;;28.00;88.10;;;;;;5093518;28;19909;-58
2022/01/30 07:27:57;;;;;;;;;;;27.90;88.40;;;;;;5093225;28;19909;-58
2022/01/30 07:30:23;;;;;;;;;;;27.90;88.60;;;;;;5093317;28;20468;-59
2022/01/30 07:32:50;;;;;;;;;;;27.90;88.70;;;;;;5093655;28;19908;-57
2022/01/30 07:35:17;;;;;;;;;;;27.80;89.20;;;;;;5093331;28;20333;-61
2022/01/30 07:37:44;;;;;;;;;;;27.90;89.20;;;;;;5093029;28;19908;-59
2022/01/30 07:40:12;;;;;;;;;;;27.80;88.60;;;;;;5092961;28;19916;-56
2022/01/30 07:42:39;;;;;;;;;;;27.90;88.00;;;;;;5093004;28;19924;-61
2022/01/30 07:45:06;;;;;;;;;;;27.80;89.20;;;;;;5092901;28;19943;-55
2022/01/30 07:47:32;;;;;;;;;;;27.80;89.50;;;;;;5092995;28;19908;-56
2022/01/30 07:49:59;;;;;;;;;;;27.80;89.00;;;;;;5092472;28;19911;-60
2022/01/30 07:52:26;;;;;;;;;;;27.70;89.20;;;;;;5092620;28;19919;-52
2022/01/30 07:54:52;;;;;;;;;;;27.70;89.20;;;;;;5092821;28;19908;-59
2022/01/30 07:57:19;;;;;;;;;;;27.70;90.00;;;;;;5092696;28;19915;-59
2022/01/30 07:59:46;;;;;;;;;;;27.70;87.90;;;;;;5092827;28;19916;-56
2022/01/30 08:02:13;;;;;;;;;;;27.70;88.90;;;;;;5092547;28;20279;-58
2022/01/30 08:04:39;;;;;;;;;;;27.70;89.00;;;;;;5092218;28;19908;-58
2022/01/30 08:07:07;;;;;;;;;;;27.70;88.90;;;;;;5092629;28;19915;-62
2022/01/30 08:09:33;;;;;;;;;;;27.70;88.00;;;;;;5092808;28;20380;-59
2022/01/30 08:12:00;;;;;;;;;;;27.70;88.80;;;;;;5092364;28;20273;-59
2022/01/30 08:14:27;;;;;;;;;;;27.60;88.60;;;;;;5092668;28;19908;-60
2022/01/30 08:16:54;;;;;;;;;;;27.60;88.80;;;;;;5091069;28;20293;-61
2022/01/30 08:19:23;;;;;;;;;;;27.60;88.50;;;;;;5092641;28;20259;-57
2022/01/30 08:21:50;;;;;;;;;;;27.60;89.10;;;;;;5092879;28;19954;-53
2022/01/30 08:24:19;;;;;;;;;;;27.60;89.60;;;;;;5092818;28;20294;-57
2022/01/30 08:26:46;;;;;;;;;;;27.60;89.00;;;;;;5092759;28;20002;-62
2022/01/30 08:29:13;;;;;;;;;;;27.60;89.70;;;;;;5092456;28;19915;-61
2022/01/30 08:31:39;;;;;;;;;;;27.50;89.70;;;;;;5092540;28;19951;-57
2022/01/30 08:34:06;;;;;;;;;;;27.50;89.40;;;;;;5092267;28;19912;-60
2022/01/30 08:36:33;;;;;;;;;;;27.50;89.60;;;;;;5092592;28;19908;-58
2022/01/30 08:38:59;;;;;;;;;;;27.40;89.80;;;;;;5092419;28;20246;-56
2022/01/30 08:41:26;;;;;;;;;;;27.40;89.90;;;;;;5092504;28;20083;-56
2022/01/30 08:43:53;;;;;;;;;;;27.40;89.90;;;;;;5092190;28;19915;-62
2022/01/30 08:46:20;;;;;;;;;;;27.40;90.00;;;;;;5092356;28;20420;-61
2022/01/30 08:48:47;;;;;;;;;;;27.40;90.00;;;;;;5092408;28;19920;-60
2022/01/30 08:51:13;;;;;;;;;;;27.40;90.10;;;;;;5091365;28;19908;-55
2022/01/30 08:53:41;;;;;;;;;;;27.40;90.10;;;;;;5092232;28;20002;-60
2022/01/30 08:56:07;;;;;;;;;;;27.30;90.10;;;;;;5092361;28;19970;-62
2022/01/30 08:58:34;;;;;;;;;;;27.30;90.20;;;;;;5092188;28;20290;-59
2022/01/30 09:01:01;;;;;;;;;;;27.30;90.30;;;;;;5092328;28;19908;-57
2022/01/30 09:03:28;;;;;;;;;;;27.30;90.30;;;;;;5091081;28;19930;-59
2022/01/30 09:05:54;;;;;;;;;;;27.20;90.30;;;;;;5092387;28;20416;-61
2022/01/30 09:08:21;;;;;;;;;;;27.20;90.40;;;;;;5092162;28;19958;-58
2022/01/30 09:10:49;;;;;;;;;;;27.20;90.40;;;;;;5092492;28;19995;-59
2022/01/30 09:13:16;;;;;;;;;;;27.20;90.50;;;;;;5092173;28;19952;-61
2022/01/30 09:15:43;;;;;;;;;;;27.20;90.50;;;;;;5091226;28;19908;-56
2022/01/30 09:18:11;;;;;;;;;;;27.10;90.50;;;;;;5095162;28;19913;-64
2022/01/30 09:20:39;;;;;;;;;;;27.10;90.60;;;;;;5096108;28;19914;-62
2022/01/30 09:23:06;;;;;;;;;;;27.10;90.60;;;;;;5095099;28;19908;-66
2022/01/30 09:25:33;;;;;;;;;;;27.10;90.70;;;;;;5096234;28;19908;-63
2022/01/30 09:28:00;;;;;;;;;;;27.00;90.70;;;;;;5095996;28;19920;-57
2022/01/30 09:30:27;;;;;;;;;;;27.00;90.80;;;;;;5094662;28;20354;-55
2022/01/30 09:32:54;;;;;;;;;;;27.00;90.80;;;;;;5095959;28;20366;-59
2022/01/30 09:35:21;;;;;;;;;;;27.00;90.80;;;;;;5094287;28;19908;-64
2022/01/30 09:37:48;;;;;;;;;;;27.00;90.80;;;;;;5096061;28;20259;-61
2022/01/30 09:40:17;;;;;;;;;;;26.90;90.80;;;;;;5095400;28;20247;-62
2022/01/30 09:42:45;;;;;;;;;;;26.90;90.70;;;;;;5095251;28;19934;-57
2022/01/30 09:45:12;;;;;;;;;;;26.90;90.70;;;;;;5095405;28;19934;-58
2022/01/30 09:47:40;;;;;;;;;;;26.90;90.80;;;;;;5095345;28;20399;-60
2022/01/30 09:50:07;;;;;;;;;;;26.90;90.80;;;;;;5095245;28;19957;-60
2022/01/30 09:52:34;;;;;;;;;;;26.90;90.70;;;;;;5095103;28;19909;-56
2022/01/30 09:55:01;;;;;;;;;;;26.90;90.70;;;;;;5095674;28;19908;-60
2022/01/30 09:57:27;;;;;;;;;;;26.90;90.80;;;;;;5094096;28;19995;-62
2022/01/30 09:59:55;;;;;;;;;;;26.90;90.80;;;;;;5095541;28;20266;-62
2022/01/30 10:02:26;;;;;;;;;;;26.90;90.80;;;;;;5095321;28;19940;-63
2022/01/30 10:04:54;;;;;;;;;;;26.80;90.90;;;;;;5095138;28;19914;-60
2022/01/30 10:07:25;;;;;;;;;;;26.80;90.90;;;;;;5095433;28;19912;-57
2022/01/30 10:10:06;;;;;;;;;;;26.80;90.90;;;;;;5095098;28;19976;-64
2022/01/30 10:12:33;;;;;;;;;;;26.80;91.00;;;;;;5077296;28;19976;-62
2022/01/30 10:15:02;;;;;;;;;;;26.80;90.90;;;;;;5076737;28;19909;-60
2022/01/30 10:17:33;;;;;;;;;;;26.80;90.90;;;;;;5094719;28;19916;-61
2022/01/30 10:20:01;;;;;;;;;;;26.70;91.00;;;;;;5076781;28;20018;-59
2022/01/30 10:22:28;;;;;;;;;;;26.80;90.90;;;;;;5094889;28;19908;-58
2022/01/30 10:24:56;;;;;;;;;;;26.80;91.00;;;;;;5095409;28;19908;-58
2022/01/30 10:27:25;;;;;;;;;;;26.70;91.00;;;;;;5094420;28;19914;-63
2022/01/30 10:29:58;;;;;;;;;;;26.70;91.00;;;;;;5095529;28;19912;-57
2022/01/30 10:32:26;;;;;;;;;;;26.70;90.90;;;;;;5095181;28;19908;-57
2022/01/30 10:34:57;;;;;;;;;;;26.70;90.80;;;;;;5095163;28;19940;-51
2022/01/30 10:37:24;;;;;;;;;;;26.70;90.90;;;;;;5094519;28;19912;-53
2022/01/30 10:39:54;;;;;;;;;;;26.70;90.90;;;;;;5094386;28;19959;-52
2022/01/30 10:42:34;;;;;;;;;;;26.70;91.00;;;;;;5094565;28;19931;-54
2022/01/30 10:45:02;;;;;;;;;;;26.70;90.90;;;;;;5094519;28;19991;-58
2022/01/30 10:47:30;;;;;;;;;;;26.70;90.90;;;;;;5094506;28;19908;-57
2022/01/30 10:49:57;;;;;;;;;;;26.60;90.90;;;;;;5076052;28;20366;-58
2022/01/30 10:52:24;;;;;;;;;;;26.60;90.80;;;;;;5094354;28;20270;-61
2022/01/30 10:54:51;;;;;;;;;;;26.60;91.00;;;;;;5094575;28;19936;-57
2022/01/30 10:57:17;;;;;;;;;;;26.60;91.10;;;;;;5094284;28;19967;-61
2022/01/30 10:59:52;;;;;;;;;;;26.60;90.90;;;;;;5094160;28;20273;-52
2022/01/30 11:02:19;;;;;;;;;;;26.60;91.00;;;;;;5094104;28;20350;-65
2022/01/30 11:04:48;;;;;;;;;;;26.60;91.10;;;;;;5094105;28;20277;-67
2022/01/30 11:07:17;;;;;;;;;;;26.50;91.10;;;;;;5094626;28;20350;-60
2022/01/30 11:10:08;;;;;;;;;;;26.60;91.30;;;;;;5094296;28;19920;-61
2022/01/30 11:15:42;;;;;;;;;;;26.50;91.30;;;;;;5081675;28;19961;-61
2022/01/30 11:18:12;;;;;;;;;;;26.50;91.20;;;;;;5093844;28;20412;-63
2022/01/30 11:20:39;;;;;;;;;;;26.50;91.20;;;;;;5093919;28;20374;-59
2022/01/30 11:23:06;;;;;;;;;;;26.50;91.30;;;;;;5094350;28;19912;-59
2022/01/30 11:25:37;;;;;;;;;;;26.50;91.20;;;;;;5093987;28;20434;-60
2022/01/30 11:28:05;;;;;;;;;;;26.40;91.30;;;;;;5093409;28;19915;-60
2022/01/30 11:30:32;;;;;;;;;;;26.40;91.30;;;;;;5126165;27;19908;-62
2022/01/30 11:32:59;;;;;;;;;;;26.40;91.50;;;;;;5093874;28;19915;-64
2022/01/30 11:35:26;;;;;;;;;;;26.40;91.40;;;;;;5092494;28;19912;-63
2022/01/30 11:37:56;;;;;;;;;;;26.40;91.50;;;;;;5093689;28;19909;-61
2022/01/30 11:40:23;;;;;;;;;;;26.40;91.50;;;;;;5093265;28;19919;-54
2022/01/30 11:42:51;;;;;;;;;;;26.40;91.40;;;;;;5093663;28;20003;-64
2022/01/30 11:45:19;;;;;;;;;;;26.40;91.50;;;;;;5093795;28;19908;-64
2022/01/30 11:47:55;;;;;;;;;;;26.30;91.40;;;;;;5092528;28;19958;-61
2022/01/30 11:50:28;;;;;;;;;;;26.30;91.60;;;;;;5093400;28;19908;-59
2022/01/30 11:53:00;;;;;;;;;;;26.30;91.50;;;;;;5093498;28;20358;-56
2022/01/30 11:55:56;;;;;;;;;;;26.30;91.60;;;;;;5093342;28;19908;-61
2022/01/30 11:58:38;;;;;;;;;;;26.30;91.60;;;;;;5093330;28;19978;-61
2022/01/30 12:01:09;;;;;;;;;;;26.30;91.60;;;;;;5092655;28;21545;-56
2022/01/30 12:03:36;;;;;;;;;;;26.30;91.60;;;;;;5093300;28;19908;-60
2022/01/30 12:06:23;;;;;;;;;;;26.30;91.50;;;;;;5093188;28;20316;-62
2022/01/30 12:08:54;;;;;;;;;;;26.30;91.60;;;;;;5092890;28;19955;-54
2022/01/30 12:11:47;;;;;;;;;;;26.30;91.60;;;;;;5093487;28;19912;-59
2022/01/30 12:14:20;;;;;;;;;;;26.30;91.60;;;;;;5092736;28;19914;-60
2022/01/30 12:16:47;;;;;;;;;;;26.20;91.60;;;;;;5093411;28;20373;-60
2022/01/30 12:19:18;;;;;;;;;;;26.20;91.60;;;;;;5093360;28;19916;-51
2022/01/30 12:21:45;;;;;;;;;;;26.30;91.60;;;;;;5093263;28;19984;-62
2022/01/30 12:24:25;;;;;;;;;;;26.20;91.60;;;;;;5125229;28;19908;-59
2022/01/30 12:26:53;;;;;;;;;;;26.20;91.60;;;;;;5091681;28;19908;-56
2022/01/30 12:29:35;;;;;;;;;;;26.20;91.60;;;;;;5093153;28;20354;-62
2022/01/30 12:32:21;;;;;;;;;;;26.20;91.60;;;;;;5092761;28;19908;-58
2022/01/30 12:34:49;;;;;;;;;;;26.20;91.60;;;;;;5093201;28;19908;-58
2022/01/30 12:37:24;;;;;;;;;;;26.20;91.70;;;;;;5093025;28;20247;-58
2022/01/30 12:39:52;;;;;;;;;;;26.10;91.70;;;;;;5092929;28;19922;-53
2022/01/30 12:42:19;;;;;;;;;;;26.10;91.70;;;;;;5092706;28;19990;-58
2022/01/30 12:44:46;;;;;;;;;;;26.10;91.70;;;;;;5093031;28;19919;-60
2022/01/30 12:47:14;;;;;;;;;;;26.10;91.70;;;;;;5093189;28;19953;-57
2022/01/30 12:49:46;;;;;;;;;;;26.10;91.70;;;;;;5093389;28;19912;-62
2022/01/30 12:52:39;;;;;;;;;;;26.10;91.70;;;;;;5127240;27;19908;-60
2022/01/30 12:55:12;;;;;;;;;;;26.10;91.70;;;;;;5096649;28;19943;-49
2022/01/30 12:57:42;;;;;;;;;;;26.10;91.70;;;;;;5096657;28;20288;-60
2022/01/30 13:00:10;;;;;;;;;;;26.10;91.70;;;;;;5096791;28;20404;-61
2022/01/30 13:02:37;;;;;;;;;;;26.10;91.70;;;;;;5096564;28;19937;-55
2022/01/30 13:05:14;;;;;;;;;;;26.10;91.70;;;;;;5096309;28;19908;-50
2022/01/30 13:07:50;;;;;;;;;;;26.10;91.80;;;;;;5096297;28;19912;-58
2022/01/30 13:10:17;;;;;;;;;;;26.00;91.70;;;;;;5096478;28;20011;-59
2022/01/30 13:12:45;;;;;;;;;;;26.00;91.70;;;;;;5096456;28;19954;-62
2022/01/30 13:15:16;;;;;;;;;;;26.00;91.70;;;;;;5096602;28;19920;-58
2022/01/30 13:17:43;;;;;;;;;;;26.00;91.70;;;;;;5096660;28;19965;-57
2022/01/30 13:20:12;;;;;;;;;;;26.00;91.70;;;;;;5095847;28;20286;-57
2022/01/30 13:22:40;;;;;;;;;;;26.00;91.70;;;;;;5096360;28;19912;-63
2022/01/30 13:25:08;;;;;;;;;;;26.00;91.80;;;;;;5096517;28;19908;-59
2022/01/30 13:27:41;;;;;;;;;;;26.00;91.80;;;;;;5095785;28;19909;-56
2022/01/30 13:30:09;;;;;;;;;;;25.90;91.80;;;;;;5095829;28;19916;-59
2022/01/30 13:32:44;;;;;;;;;;;25.90;91.80;;;;;;5096304;28;19959;-62
2022/01/30 13:35:15;;;;;;;;;;;25.90;91.80;;;;;;5096444;28;19912;-56
2022/01/30 13:37:43;;;;;;;;;;;25.90;91.80;;;;;;5094964;28;20362;-61
2022/01/30 13:40:22;;;;;;;;;;;25.90;91.70;;;;;;5095820;28;19916;-58
2022/01/30 13:43:03;;;;;;;;;;;25.90;91.80;;;;;;5125696;27;19966;-57
2022/01/30 13:48:05;;;;;;;;;;;25.90;91.80;;;;;;5095979;28;19908;-55
2022/01/30 13:50:41;;;;;;;;;;;25.90;91.80;;;;;;5095760;28;20362;-61
2022/01/30 13:53:10;;;;;;;;;;;25.90;91.80;;;;;;5096176;28;19990;-60
2022/01/30 13:55:53;;;;;;;;;;;25.90;91.80;;;;;;5095645;28;19908;-58
2022/01/30 13:58:20;;;;;;;;;;;25.90;91.70;;;;;;5094286;28;19939;-61
2022/01/30 14:00:48;;;;;;;;;;;25.90;91.80;;;;;;5095459;28;19940;-62
2022/01/30 14:03:27;;;;;;;;;;;25.90;91.70;;;;;;5094971;28;19915;-60
2022/01/30 14:05:55;;;;;;;;;;;25.90;91.80;;;;;;5095197;28;19908;-52
2022/01/30 14:08:24;;;;;;;;;;;25.80;91.80;;;;;;5094985;28;19977;-55
2022/01/30 14:10:50;;;;;;;;;;;25.80;91.80;;;;;;5095005;28;19931;-56
2022/01/30 14:13:21;;;;;;;;;;;25.80;91.70;;;;;;5094996;28;19974;-57
2022/01/30 14:16:05;;;;;;;;;;;25.80;91.70;;;;;;5094944;28;19919;-63
2022/01/30 14:18:35;;;;;;;;;;;25.80;91.70;;;;;;5094762;28;19971;-61
2022/01/30 14:21:04;;;;;;;;;;;25.80;91.70;;;;;;5095097;28;19931;-57
2022/01/30 14:23:37;;;;;;;;;;;25.80;91.70;;;;;;5094948;28;20389;-54
2022/01/30 14:26:18;;;;;;;;;;;25.80;91.70;;;;;;5094530;28;19953;-58
2022/01/30 14:28:44;;;;;;;;;;;25.80;91.70;;;;;;5094881;28;20319;-55
2022/01/30 14:31:20;;;;;;;;;;;25.70;91.60;;;;;;5094678;28;20306;-60
2022/01/30 14:33:47;;;;;;;;;;;25.70;91.70;;;;;;5094516;28;19908;-60
2022/01/30 14:36:14;;;;;;;;;;;25.70;91.70;;;;;;5092936;28;19994;-60
2022/01/30 14:38:45;;;;;;;;;;;25.70;91.70;;;;;;5094695;28;20399;-60
2022/01/30 14:41:12;;;;;;;;;;;25.70;91.70;;;;;;5092994;28;20281;-63
2022/01/30 14:43:39;;;;;;;;;;;25.70;91.70;;;;;;5094471;28;19924;-60
2022/01/30 14:46:06;;;;;;;;;;;25.70;91.70;;;;;;5094230;28;19908;-60
2022/01/30 14:48:33;;;;;;;;;;;25.70;91.70;;;;;;5094496;28;19914;-59
2022/01/30 14:51:00;;;;;;;;;;;25.70;91.70;;;;;;5094365;28;20196;-60
2022/01/30 14:53:26;;;;;;;;;;;25.70;91.70;;;;;;5094295;28;20308;-58
2022/01/30 14:55:53;;;;;;;;;;;25.70;91.70;;;;;;5093926;28;19908;-59
2022/01/30 14:58:22;;;;;;;;;;;25.60;91.70;;;;;;5093938;28;19985;-56
2022/01/30 15:00:55;;;;;;;;;;;25.70;91.70;;;;;;5094069;28;19965;-58
2022/01/30 15:03:22;;;;;;;;;;;25.60;91.70;;;;;;5094148;28;19908;-60
2022/01/30 15:05:48;;;;;;;;;;;25.60;91.70;;;;;;5093881;28;19908;-59
2022/01/30 15:08:19;;;;;;;;;;;25.60;91.70;;;;;;5126216;27;19970;-58
2022/01/30 15:10:46;;;;;;;;;;;25.60;91.70;;;;;;5093713;28;19957;-54
2022/01/30 15:13:13;;;;;;;;;;;25.60;91.70;;;;;;5094106;28;19908;-56
2022/01/30 15:15:41;;;;;;;;;;;25.60;91.70;;;;;;5092618;28;19914;-61
2022/01/30 15:18:17;;;;;;;;;;;25.60;91.70;;;;;;5093432;28;19908;-59
2022/01/30 15:20:45;;;;;;;;;;;25.60;91.80;;;;;;5092224;28;19916;-59
2022/01/30 15:23:12;;;;;;;;;;;25.60;91.80;;;;;;5092218;28;20306;-60
2022/01/30 15:25:38;;;;;;;;;;;25.60;91.80;;;;;;5093692;28;20422;-60